Time;durP1;ratioP1;P1;durP2;ratioP2;P2;SDS_P1;SDS_P2;PMS_P1;PMS_P2;Temp;Humidity;BMP_temperature;BMP_pressure;BME280_temperature;BME280_humidity;BME280_pressure;Samples;Min_cycle;Max_cycle;Signal;HPM_P1;HPM_P2
2021/03/09 00:01:56;;;;;;;28.73;13.43;;;3.70;69.90;;;;;;1665747;86;21182;-72
2021/03/09 00:04:25;;;;;;;25.97;13.88;;;3.60;70.20;;;;;;1665686;86;21197;-74
2021/03/09 00:06:53;;;;;;;28.65;13.20;;;3.50;70.90;;;;;;1665824;86;21173;-73
2021/03/09 00:09:21;;;;;;;26.97;14.53;;;3.60;70.70;;;;;;1665765;86;21182;-73
2021/03/09 00:11:49;;;;;;;24.30;11.88;;;3.40;70.70;;;;;;1665731;86;21174;-73
2021/03/09 00:14:17;;;;;;;23.18;12.25;;;3.40;71.20;;;;;;1665832;86;21206;-73
2021/03/09 00:16:45;;;;;;;26.30;12.65;;;3.60;70.80;;;;;;1666053;86;21150;-73
2021/03/09 00:19:13;;;;;;;23.50;12.15;;;3.60;70.20;;;;;;1665938;86;21170;-73
2021/03/09 00:21:41;;;;;;;26.33;11.68;;;3.60;70.40;;;;;;1666099;86;21187;-73
2021/03/09 00:24:09;;;;;;;25.08;11.93;;;3.60;71.10;;;;;;1666182;86;21715;-73
2021/03/09 00:26:37;;;;;;;22.98;12.10;;;3.60;70.50;;;;;;1666135;86;21344;-73
2021/03/09 00:29:05;;;;;;;28.25;12.23;;;3.60;70.40;;;;;;1665843;86;21194;-73
2021/03/09 00:31:34;;;;;;;22.37;11.88;;;3.50;70.40;;;;;;1665898;86;21166;-73
2021/03/09 00:34:03;;;;;;;24.85;12.40;;;3.50;70.70;;;;;;1665730;86;21186;-73
2021/03/09 00:36:31;;;;;;;25.10;12.30;;;3.50;70.60;;;;;;1666225;86;21189;-73
2021/03/09 00:38:59;;;;;;;27.37;12.73;;;3.50;71.60;;;;;;1665757;86;21199;-73
2021/03/09 00:41:27;;;;;;;26.97;12.50;;;3.50;71.10;;;;;;1665665;86;21601;-74
2021/03/09 00:43:55;;;;;;;25.97;12.05;;;3.40;71.30;;;;;;1665834;86;21573;-73
2021/03/09 00:46:26;;;;;;;24.90;12.82;;;3.40;71.30;;;;;;1665663;86;21173;-74
2021/03/09 00:48:54;;;;;;;24.43;12.45;;;3.40;71.50;;;;;;1665483;86;21158;-74
2021/03/09 00:51:22;;;;;;;25.52;12.82;;;3.40;71.60;;;;;;1665696;86;21186;-74
2021/03/09 00:53:50;;;;;;;28.40;13.72;;;3.40;71.70;;;;;;1666095;86;21178;-73
2021/03/09 00:56:20;;;;;;;23.95;11.38;;;3.40;71.60;;;;;;1665614;86;21158;-75
2021/03/09 00:58:48;;;;;;;26.05;13.20;;;3.50;71.40;;;;;;1666535;86;21193;-72
2021/03/09 01:01:16;;;;;;;26.52;12.23;;;3.40;71.40;;;;;;1668828;86;21150;-73
2021/03/09 01:03:44;;;;;;;25.95;12.60;;;3.40;71.60;;;;;;1668429;85;21206;-73
2021/03/09 01:06:13;;;;;;;26.62;12.37;;;3.30;71.80;;;;;;1668369;86;21207;-73
2021/03/09 01:08:41;;;;;;;26.45;12.93;;;3.30;72.20;;;;;;1668761;85;21589;-73
2021/03/09 01:11:09;;;;;;;27.70;14.43;;;3.40;72.20;;;;;;1668900;86;21201;-73
2021/03/09 01:13:37;;;;;;;28.55;13.40;;;3.40;72.10;;;;;;1668627;86;21202;-73
2021/03/09 01:16:06;;;;;;;29.40;13.90;;;3.40;72.30;;;;;;1668729;86;21173;-72
2021/03/09 01:18:34;;;;;;;30.45;13.43;;;3.40;72.10;;;;;;1668279;86;21172;-73
2021/03/09 01:21:03;;;;;;;28.20;13.58;;;3.40;72.10;;;;;;1668231;86;21174;-73
2021/03/09 01:23:31;;;;;;;29.10;13.50;;;3.50;72.40;;;;;;1668431;86;21603;-73
2021/03/09 01:25:59;;;;;;;30.08;13.80;;;3.50;72.00;;;;;;1668268;86;21186;-73
2021/03/09 01:28:27;;;;;;;30.82;14.47;;;3.60;72.10;;;;;;1668679;86;21186;-73
2021/03/09 01:30:55;;;;;;;25.68;12.93;;;3.60;71.80;;;;;;1668638;86;21185;-73
2021/03/09 01:33:24;;;;;;;27.98;12.78;;;3.60;71.70;;;;;;1668845;86;21588;-73
2021/03/09 01:35:52;;;;;;;24.43;12.98;;;3.60;71.60;;;;;;1668360;85;21189;-73
2021/03/09 01:38:20;;;;;;;24.98;12.63;;;3.60;71.50;;;;;;1668360;86;21192;-72
2021/03/09 01:40:48;;;;;;;27.30;13.45;;;3.50;71.70;;;;;;1668568;86;21627;-73
2021/03/09 01:43:17;;;;;;;26.07;12.73;;;3.60;72.60;;;;;;1668465;86;21624;-73
2021/03/09 01:45:44;;;;;;;25.45;12.78;;;3.60;71.60;;;;;;1668382;86;21194;-73
2021/03/09 01:48:16;;;;;;;28.65;12.98;;;3.50;71.90;;;;;;1668350;86;21174;-73
2021/03/09 01:50:45;;;;;;;25.65;12.98;;;3.50;72.50;;;;;;1668276;86;21182;-73
2021/03/09 01:53:19;;;;;;;27.07;14.20;;;3.50;72.50;;;;;;1668454;85;21607;-73
2021/03/09 01:55:47;;;;;;;25.60;12.45;;;3.50;72.30;;;;;;1668524;86;21608;-75
2021/03/09 01:58:21;;;;;;;27.50;13.55;;;3.60;71.50;;;;;;1668204;86;21177;-75
2021/03/09 02:00:49;;;;;;;25.85;12.82;;;3.60;71.30;;;;;;1665976;86;21173;-75
2021/03/09 02:03:17;;;;;;;28.27;13.43;;;3.80;70.70;;;;;;1665760;86;21189;-75
2021/03/09 02:05:46;;;;;;;26.05;13.03;;;3.70;70.40;;;;;;1665697;86;21594;-75
2021/03/09 02:08:14;;;;;;;27.58;13.28;;;3.70;71.00;;;;;;1665683;86;21174;-75
2021/03/09 02:10:42;;;;;;;29.55;14.18;;;3.80;70.90;;;;;;1665638;86;21632;-74
2021/03/09 02:13:37;;;;;;;25.55;11.63;;;3.70;70.40;;;;;;1665619;86;21189;-75
2021/03/09 02:16:46;;;;;;;24.67;11.88;;;3.80;70.00;;;;;;1664640;85;21170;-74
2021/03/09 02:19:46;;;;;;;28.95;12.30;;;3.80;69.50;;;;;;1665711;86;21169;-74
2021/03/09 02:22:56;;;;;;;21.23;10.85;;;3.60;69.90;;;;;;1665734;86;21557;-74
2021/03/09 02:25:45;;;;;;;23.77;11.90;;;3.60;69.70;;;;;;1665721;86;21127;-74
2021/03/09 02:28:42;;;;;;;23.87;11.63;;;3.70;69.60;;;;;;1665582;86;21151;-73
2021/03/09 02:31:18;;;;;;;23.15;11.88;;;3.70;69.50;;;;;;1659406;85;21660;-74
2021/03/09 02:34:10;;;;;;;23.50;11.12;;;3.70;69.70;;;;;;1665572;86;21194;-75
2021/03/09 02:36:41;;;;;;;23.40;11.88;;;3.70;70.30;;;;;;1666326;86;21562;-75
2021/03/09 02:39:14;;;;;;;22.77;11.43;;;3.70;69.20;;;;;;1665769;86;21178;-75
2021/03/09 02:41:49;;;;;;;22.73;11.00;;;3.60;68.70;;;;;;1665713;86;21166;-74
2021/03/09 02:44:22;;;;;;;22.30;11.15;;;3.60;68.90;;;;;;1666449;86;21541;-74
2021/03/09 02:46:50;;;;;;;21.15;10.43;;;3.60;69.00;;;;;;1665884;85;21170;-74
2021/03/09 02:49:24;;;;;;;22.98;11.08;;;3.60;69.40;;;;;;1664396;86;21142;-74
2021/03/09 02:51:54;;;;;;;24.30;10.63;;;3.60;69.20;;;;;;1666148;86;21190;-74
2021/03/09 02:54:24;;;;;;;22.52;10.95;;;3.70;68.90;;;;;;1665746;86;21174;-74
2021/03/09 02:56:52;;;;;;;21.82;10.45;;;3.60;69.00;;;;;;1665806;86;21170;-74
2021/03/09 02:59:22;;;;;;;20.52;10.53;;;3.60;68.90;;;;;;1666692;85;21628;-74
2021/03/09 03:01:52;;;;;;;23.25;10.55;;;3.50;68.70;;;;;;1668521;86;21181;-74
2021/03/09 03:04:22;;;;;;;23.77;11.57;;;3.50;69.30;;;;;;1668461;86;21146;-73
2021/03/09 03:06:57;;;;;;;22.25;10.93;;;3.40;69.40;;;;;;1668435;86;21577;-74
2021/03/09 03:09:26;;;;;;;22.93;10.88;;;3.30;69.90;;;;;;1668500;86;21182;-75
2021/03/09 03:11:55;;;;;;;19.80;9.63;;;3.30;69.90;;;;;;1668534;86;21202;-75
2021/03/09 03:14:24;;;;;;;19.25;10.18;;;3.30;69.80;;;;;;1668822;85;21206;-75
2021/03/09 03:16:53;;;;;;;20.48;10.35;;;3.20;69.90;;;;;;1668332;86;21177;-75
2021/03/09 03:19:23;;;;;;;21.62;10.05;;;3.20;69.90;;;;;;1668715;86;21149;-75
2021/03/09 03:21:52;;;;;;;21.35;9.85;;;3.20;69.80;;;;;;1668354;86;21202;-75
2021/03/09 03:24:21;;;;;;;20.02;10.60;;;3.30;70.10;;;;;;1668424;86;21620;-75
2021/03/09 03:26:50;;;;;;;18.75;9.40;;;3.30;69.50;;;;;;1668313;85;21169;-75
2021/03/09 03:30:27;;;;;;;21.48;10.05;;;3.20;68.20;;;;;;1668757;86;21620;-75
2021/03/09 03:32:55;;;;;;;21.45;10.25;;;3.20;68.70;;;;;;1668533;86;21178;-75
2021/03/09 03:35:24;;;;;;;21.20;9.50;;;3.30;69.30;;;;;;1668814;86;21181;-75
2021/03/09 03:37:52;;;;;;;19.70;9.25;;;3.30;67.70;;;;;;1668537;86;21185;-75
2021/03/09 03:40:23;;;;;;;18.30;9.28;;;3.40;67.50;;;;;;1668392;85;21652;-74
2021/03/09 03:42:51;;;;;;;18.45;8.93;;;3.30;67.10;;;;;;1668528;86;21127;-75
2021/03/09 03:45:21;;;;;;;17.98;8.83;;;3.40;66.70;;;;;;1668350;85;21186;-76
2021/03/09 03:47:54;;;;;;;22.05;9.25;;;3.40;67.20;;;;;;1668808;86;21568;-75
2021/03/09 03:50:23;;;;;;;19.32;9.73;;;3.50;66.80;;;;;;1668366;86;21166;-74
2021/03/09 03:53:12;;;;;;;19.17;8.70;;;3.30;67.00;;;;;;1668885;86;21165;-74
2021/03/09 03:56:18;;;;;;;22.17;9.18;;;3.20;66.70;;;;;;1668060;84;21185;-75
2021/03/09 03:58:57;;;;;;;16.45;8.00;;;3.20;67.40;;;;;;1667825;84;21134;-74
2021/03/09 04:01:26;;;;;;;18.45;9.18;;;3.00;67.60;;;;;;1667979;85;21146;-75
2021/03/09 04:03:58;;;;;;;19.82;9.78;;;2.90;68.30;;;;;;1668438;86;21183;-75
2021/03/09 04:06:29;;;;;;;19.35;9.28;;;2.90;69.00;;;;;;1668555;86;21165;-74
2021/03/09 04:09:02;;;;;;;19.92;9.80;;;2.80;70.00;;;;;;1668406;86;21177;-76
2021/03/09 04:11:30;;;;;;;19.35;9.55;;;2.80;70.10;;;;;;1668389;86;21649;-75
2021/03/09 04:14:00;;;;;;;20.92;9.43;;;2.70;69.80;;;;;;1668345;86;21190;-75
2021/03/09 04:16:31;;;;;;;18.35;9.10;;;2.70;70.70;;;;;;1668482;86;21154;-75
2021/03/09 04:19:02;;;;;;;18.05;9.20;;;2.80;70.20;;;;;;1667930;84;21658;-75
2021/03/09 04:21:30;;;;;;;18.45;9.30;;;2.80;71.30;;;;;;1668887;86;21189;-74
2021/03/09 04:24:01;;;;;;;17.98;8.73;;;2.70;70.40;;;;;;1668497;86;21546;-75
2021/03/09 04:26:30;;;;;;;19.75;9.65;;;2.70;71.10;;;;;;1668401;86;21565;-74
2021/03/09 04:28:59;;;;;;;16.30;8.38;;;2.70;70.40;;;;;;1668509;86;21184;-74
2021/03/09 04:31:28;;;;;;;16.48;8.43;;;2.80;70.80;;;;;;1668445;86;21194;-74
2021/03/09 04:33:57;;;;;;;19.98;9.80;;;2.70;70.30;;;;;;1668590;86;21178;-75
2021/03/09 04:36:25;;;;;;;16.95;8.75;;;2.60;70.70;;;;;;1668369;86;21637;-74
2021/03/09 04:38:54;;;;;;;16.17;8.43;;;2.60;70.80;;;;;;1668289;85;21197;-75
2021/03/09 04:41:22;;;;;;;18.50;8.78;;;2.60;70.40;;;;;;1668752;86;21202;-75
2021/03/09 04:43:50;;;;;;;17.92;8.13;;;2.60;70.60;;;;;;1668294;86;21193;-75
2021/03/09 04:46:23;;;;;;;16.02;7.85;;;2.50;71.80;;;;;;1668772;86;21573;-75
2021/03/09 04:48:52;;;;;;;17.12;8.65;;;2.50;70.50;;;;;;1668274;86;21565;-75
2021/03/09 04:51:21;;;;;;;17.00;7.87;;;2.60;69.90;;;;;;1668149;86;21709;-75
2021/03/09 04:53:50;;;;;;;19.20;8.83;;;2.60;68.60;;;;;;1668446;86;21185;-75
2021/03/09 04:56:18;;;;;;;18.87;8.65;;;2.60;68.30;;;;;;1668435;85;21141;-74
2021/03/09 04:58:45;;;;;;;17.40;8.60;;;2.60;68.30;;;;;;1668313;86;21608;-75
2021/03/09 05:01:13;;;;;;;16.32;8.05;;;2.60;69.00;;;;;;1666024;85;21620;-75
2021/03/09 05:03:40;;;;;;;17.95;8.05;;;2.40;69.70;;;;;;1665639;86;21181;-73
2021/03/09 05:06:08;;;;;;;18.67;8.00;;;2.30;70.10;;;;;;1665625;86;21150;-73
2021/03/09 05:08:36;;;;;;;16.35;8.35;;;2.40;70.20;;;;;;1665650;86;21186;-73
2021/03/09 05:11:03;;;;;;;17.62;8.35;;;2.50;69.10;;;;;;1665568;86;21604;-74
2021/03/09 05:13:31;;;;;;;16.67;8.15;;;2.60;69.70;;;;;;1665803;86;21619;-73
2021/03/09 05:15:59;;;;;;;17.82;8.33;;;2.70;69.20;;;;;;1665817;86;21197;-72
2021/03/09 05:18:27;;;;;;;15.90;8.30;;;2.70;68.60;;;;;;1665409;86;21181;-72
2021/03/09 05:20:55;;;;;;;17.50;7.50;;;2.70;68.60;;;;;;1665572;86;21230;-73
2021/03/09 05:23:22;;;;;;;17.92;8.58;;;2.70;67.50;;;;;;1665792;86;21186;-74
2021/03/09 05:25:52;;;;;;;17.00;7.50;;;2.70;68.90;;;;;;1665638;86;21635;-74
2021/03/09 05:28:20;;;;;;;17.07;8.45;;;2.70;69.30;;;;;;1665356;85;21585;-73
2021/03/09 05:30:47;;;;;;;18.73;9.38;;;2.70;69.50;;;;;;1665673;86;21174;-73
2021/03/09 05:33:15;;;;;;;17.65;8.08;;;2.90;68.50;;;;;;1665632;86;21150;-72
2021/03/09 05:35:43;;;;;;;18.23;8.38;;;3.00;68.20;;;;;;1666107;86;21198;-72
2021/03/09 05:38:11;;;;;;;17.07;8.55;;;3.00;69.10;;;;;;1666024;86;21157;-72
2021/03/09 05:40:39;;;;;;;20.92;9.68;;;3.10;68.40;;;;;;1665603;86;21651;-74
2021/03/09 05:43:07;;;;;;;19.48;10.20;;;3.20;67.80;;;;;;1665566;86;21178;-73
2021/03/09 05:45:38;;;;;;;20.88;9.53;;;3.30;66.70;;;;;;1665755;86;21195;-71
2021/03/09 05:48:07;;;;;;;23.27;10.05;;;3.30;66.30;;;;;;1665494;86;21596;-74
2021/03/09 05:50:35;;;;;;;26.10;10.60;;;3.40;67.40;;;;;;1665806;86;21181;-74
2021/03/09 05:53:03;;;;;;;25.50;10.00;;;3.50;66.20;;;;;;1665493;86;21157;-73
2021/03/09 05:55:31;;;;;;;22.22;10.13;;;3.50;65.50;;;;;;1665569;86;21149;-73
2021/03/09 05:57:59;;;;;;;24.37;10.53;;;3.60;65.40;;;;;;1665466;86;21647;-73
2021/03/09 06:00:27;;;;;;;23.15;9.68;;;3.50;64.90;;;;;;1666631;85;21149;-74
2021/03/09 06:02:55;;;;;;;20.92;10.10;;;3.50;65.00;;;;;;1668090;86;21170;-78
2021/03/09 06:05:23;;;;;;;17.77;8.33;;;3.50;64.50;;;;;;1667071;85;21169;-79
2021/03/09 06:07:54;;;;;;;18.77;8.60;;;3.50;64.60;;;;;;1668098;86;21162;-78
2021/03/09 06:10:24;;;;;;;16.55;7.55;;;3.50;63.80;;;;;;1668096;86;21125;-78
2021/03/09 06:12:53;;;;;;;18.42;8.80;;;3.60;61.90;;;;;;1667872;86;21153;-79
2021/03/09 06:15:21;;;;;;;17.75;8.75;;;3.60;61.20;;;;;;1668198;86;21190;-73
2021/03/09 06:17:57;;;;;;;17.50;7.70;;;3.70;60.90;;;;;;1667933;86;21122;-71
2021/03/09 06:20:29;;;;;;;15.58;7.62;;;3.70;60.90;;;;;;1664455;86;21161;-74
2021/03/09 06:23:02;;;;;;;16.45;8.08;;;3.80;60.10;;;;;;1668050;86;21189;-74
2021/03/09 06:25:38;;;;;;;16.82;7.42;;;3.70;60.00;;;;;;1665254;86;21628;-73
2021/03/09 06:28:12;;;;;;;16.95;7.78;;;3.70;59.80;;;;;;1664896;86;21178;-76
2021/03/09 06:30:41;;;;;;;20.85;9.25;;;3.70;59.40;;;;;;1668292;86;21173;-74
2021/03/09 06:33:10;;;;;;;13.15;6.55;;;3.80;59.40;;;;;;1668101;86;21197;-78
2021/03/09 06:35:47;;;;;;;14.87;7.33;;;3.80;59.30;;;;;;1668216;86;21197;-77
2021/03/09 06:38:30;;;;;;;11.65;5.75;;;3.70;59.00;;;;;;1668113;86;21153;-73
2021/03/09 06:41:18;;;;;;;12.55;5.87;;;3.70;59.10;;;;;;1665240;86;21572;-75
2021/03/09 06:44:01;;;;;;;10.70;5.08;;;3.80;58.10;;;;;;1666848;86;21158;-71
2021/03/09 06:46:30;;;;;;;10.40;5.47;;;4.00;57.30;;;;;;1667048;86;21181;-75
2021/03/09 06:49:04;;;;;;;8.05;4.62;;;4.10;57.00;;;;;;1667971;86;21157;-75
2021/03/09 06:51:37;;;;;;;9.93;4.70;;;4.20;55.70;;;;;;1668335;86;21209;-76
2021/03/09 06:54:11;;;;;;;12.20;6.03;;;4.20;56.30;;;;;;1667993;86;21149;-73
2021/03/09 06:56:42;;;;;;;11.22;5.62;;;4.20;55.50;;;;;;1663401;86;21576;-72
2021/03/09 06:59:28;;;;;;;13.55;5.00;;;4.20;56.20;;;;;;1664624;86;21150;-71
2021/03/09 07:02:10;;;;;;;17.27;5.70;;;4.30;55.70;;;;;;1664194;86;21165;-71
2021/03/09 07:04:48;;;;;;;11.35;6.25;;;4.40;55.50;;;;;;1664336;86;21161;-70
2021/03/09 07:07:37;;;;;;;10.98;5.80;;;4.20;55.10;;;;;;1665580;86;21150;-75
2021/03/09 07:10:16;;;;;;;14.80;6.15;;;4.20;55.70;;;;;;1665400;86;21221;-74
2021/03/09 07:12:46;;;;;;;13.28;5.50;;;4.20;55.60;;;;;;1664417;85;21162;-74
2021/03/09 07:15:18;;;;;;;11.10;5.90;;;4.30;55.70;;;;;;1665578;86;21161;-74
2021/03/09 07:17:51;;;;;;;12.70;5.72;;;4.50;55.20;;;;;;1665497;86;21560;-75
2021/03/09 07:20:19;;;;;;;10.75;5.55;;;4.50;55.20;;;;;;1662257;86;21202;-72
2021/03/09 07:22:54;;;;;;;11.53;5.87;;;4.60;55.50;;;;;;1665664;85;21695;-74
2021/03/09 07:25:25;;;;;;;11.95;5.47;;;4.70;54.50;;;;;;1665730;86;21640;-74
2021/03/09 07:28:06;;;;;;;11.08;5.78;;;4.70;54.40;;;;;;1665357;86;21169;-73
2021/03/09 07:30:39;;;;;;;13.98;5.50;;;4.60;53.60;;;;;;1663962;86;21615;-75
2021/03/09 07:33:07;;;;;;;16.32;5.78;;;4.40;54.00;;;;;;1665664;86;21201;-74
2021/03/09 07:35:35;;;;;;;11.60;5.30;;;4.50;54.40;;;;;;1665400;86;21145;-75
2021/03/09 07:38:05;;;;;;;10.38;4.83;;;4.50;53.20;;;;;;1665517;86;21178;-76
2021/03/09 07:40:36;;;;;;;11.03;5.58;;;4.40;53.60;;;;;;1665471;86;21186;-77
2021/03/09 07:43:05;;;;;;;9.53;5.12;;;4.40;53.50;;;;;;1665311;86;21585;-74
2021/03/09 07:45:37;;;;;;;9.70;5.05;;;4.40;53.00;;;;;;1665393;86;21162;-76
2021/03/09 07:48:12;;;;;;;9.85;4.92;;;4.40;52.70;;;;;;1665297;86;21197;-74
2021/03/09 07:50:43;;;;;;;10.18;5.15;;;4.30;52.80;;;;;;1661221;85;21221;-75
2021/03/09 07:53:19;;;;;;;11.15;4.90;;;4.20;52.90;;;;;;1665405;86;21158;-74
2021/03/09 07:55:50;;;;;;;10.05;5.22;;;4.30;54.10;;;;;;1663345;86;21150;-74
2021/03/09 07:58:24;;;;;;;11.35;5.00;;;4.60;52.90;;;;;;1665428;86;21181;-75
2021/03/09 08:01:05;;;;;;;14.55;6.80;;;4.90;52.30;;;;;;1661917;86;21197;-75
2021/03/09 08:03:36;;;;;;;11.95;5.83;;;5.50;51.60;;;;;;1658339;86;21162;-75
2021/03/09 08:06:11;;;;;;;9.70;5.12;;;6.40;48.90;;;;;;1646318;86;21189;-73
2021/03/09 08:08:43;;;;;;;13.78;5.72;;;7.50;45.20;;;;;;1651464;86;21606;-70
2021/03/09 08:11:25;;;;;;;12.98;5.00;;;8.70;41.40;;;;;;1635363;86;21193;-73
2021/03/09 08:14:09;;;;;;;8.75;4.60;;;9.60;39.00;;;;;;1644373;86;21317;-76
2021/03/09 08:16:41;;;;;;;7.25;3.30;;;10.60;36.40;;;;;;1639670;86;21161;-76
2021/03/09 08:19:27;;;;;;;7.47;3.52;;;11.40;32.70;;;;;;1587806;90;21206;-79
2021/03/09 08:22:03;;;;;;;7.60;4.33;;;12.10;31.00;;;;;;1644786;87;21142;-89
2021/03/09 08:24:48;;;;;;;9.10;4.93;;;12.80;31.00;;;;;;1637282;86;21180;-79
2021/03/09 08:27:33;;;;;;;10.48;5.20;;;13.10;29.70;;;;;;1633820;87;21167;-73
2021/03/09 08:30:27;;;;;;;13.93;7.85;;;13.80;29.70;;;;;;1649237;86;21170;-80
2021/03/09 08:33:25;;;;;;;8.20;3.80;;;14.50;28.30;;;;;;1658073;86;21562;-90
2021/03/09 08:36:29;;;;;;;9.23;4.50;;;15.10;27.10;;;;;;1780590;79;22589;-81
2021/03/09 08:39:10;;;;;;;6.80;4.40;;;15.70;25.80;;;;;;1753528;82;21600;-77
2021/03/09 08:41:43;;;;;;;6.80;4.50;;;16.10;25.40;;;;;;1753544;82;21161;-78
2021/03/09 08:44:20;;;;;;;8.03;5.30;;;16.00;25.60;;;;;;1753556;82;21184;-78
2021/03/09 08:47:11;;;;;;;12.33;6.03;;;16.00;26.50;;;;;;1753909;81;21152;-77
2021/03/09 08:49:48;;;;;;;10.60;7.00;;;15.20;26.90;;;;;;1754084;81;21568;-75
2021/03/09 08:52:25;;;;;;;10.43;6.10;;;14.50;28.10;;;;;;1753763;82;21153;-80
2021/03/09 08:54:52;;;;;;;10.13;6.20;;;14.40;28.40;;;;;;1753928;82;21189;-81
2021/03/09 08:57:24;;;;;;;9.78;5.70;;;14.00;29.00;;;;;;1754087;82;21299;-81
2021/03/09 08:59:56;;;;;;;11.12;6.03;;;13.80;29.10;;;;;;1753971;81;21169;-83
2021/03/09 09:02:26;;;;;;;10.30;6.40;;;13.10;30.00;;;;;;1743631;82;21197;-79
2021/03/09 09:04:58;;;;;;;13.35;5.37;;;12.60;30.70;;;;;;1753679;81;21149;-77
2021/03/09 09:07:36;;;;;;;10.38;4.85;;;12.60;31.00;;;;;;1754014;82;21157;-78
2021/03/09 09:10:10;;;;;;;8.58;4.78;;;12.50;31.30;;;;;;1753662;82;21162;-77
2021/03/09 09:12:49;;;;;;;10.80;5.12;;;12.30;31.10;;;;;;1754215;82;21190;-78
2021/03/09 09:15:30;;;;;;;10.10;5.42;;;12.00;31.10;;;;;;1754081;82;21122;-76
2021/03/09 09:18:05;;;;;;;9.73;5.08;;;11.90;32.20;;;;;;1753668;82;21142;-76
2021/03/09 09:20:40;;;;;;;8.03;4.90;;;11.70;32.40;;;;;;1753323;82;21142;-77
2021/03/09 09:23:19;;;;;;;9.40;4.28;;;11.50;32.20;;;;;;1753689;82;21170;-75
2021/03/09 09:25:50;;;;;;;8.78;3.70;;;11.30;32.00;;;;;;1753660;81;21157;-75
2021/03/09 09:28:31;;;;;;;8.70;4.62;;;10.90;32.20;;;;;;1753726;81;21134;-77
2021/03/09 09:31:14;;;;;;;7.80;4.28;;;10.70;32.30;;;;;;1753708;81;21592;-77
2021/03/09 09:33:50;;;;;;;10.88;4.17;;;10.30;33.70;;;;;;1753629;81;21153;-77
2021/03/09 09:36:20;;;;;;;7.75;4.10;;;10.30;33.30;;;;;;1740433;81;21192;-76
2021/03/09 09:38:54;;;;;;;6.95;3.98;;;10.20;33.20;;;;;;1740551;82;21142;-75
2021/03/09 09:41:24;;;;;;;9.43;4.92;;;10.20;33.30;;;;;;1740410;82;21593;-77
2021/03/09 09:43:55;;;;;;;9.43;5.05;;;10.00;33.10;;;;;;1740706;82;21142;-80
2021/03/09 09:46:26;;;;;;;7.50;4.53;;;9.60;34.10;;;;;;1740054;82;21145;-81
2021/03/09 09:48:56;;;;;;;8.30;4.28;;;9.20;35.60;;;;;;1740050;82;21743;-80
2021/03/09 09:51:26;;;;;;;8.33;4.35;;;9.20;36.20;;;;;;1740187;82;21189;-74
2021/03/09 09:53:54;;;;;;;8.08;4.33;;;9.30;35.60;;;;;;1740134;82;21212;-81
2021/03/09 09:56:25;;;;;;;8.78;4.53;;;9.10;35.60;;;;;;1739865;82;21170;-77
2021/03/09 09:59:02;;;;;;;8.08;4.62;;;8.70;35.70;;;;;;1740325;82;21134;-77
2021/03/09 10:01:38;;;;;;;9.28;4.25;;;8.60;36.80;;;;;;1740093;82;21133;-77
2021/03/09 10:04:14;;;;;;;9.55;4.70;;;8.40;37.30;;;;;;1740410;82;21138;-77
2021/03/09 10:06:48;;;;;;;8.48;4.78;;;8.70;36.90;;;;;;1739837;82;21134;-79
2021/03/09 10:09:21;;;;;;;8.35;4.25;;;8.80;36.30;;;;;;1739874;82;21166;-78
2021/03/09 10:11:58;;;;;;;8.55;4.83;;;8.90;37.00;;;;;;1740226;82;21146;-79
2021/03/09 10:14:36;;;;;;;9.95;4.92;;;8.90;36.50;;;;;;1740119;82;21178;-82
2021/03/09 10:17:04;;;;;;;9.08;5.15;;;9.00;36.70;;;;;;1739926;82;21260;-73
2021/03/09 10:19:39;;;;;;;12.05;5.25;;;8.80;36.40;;;;;;1739903;82;21141;-82
2021/03/09 10:22:21;;;;;;;8.00;4.78;;;8.80;36.90;;;;;;1741153;82;21557;-80
2021/03/09 10:24:49;;;;;;;9.33;4.80;;;8.60;36.30;;;;;;1740086;82;21569;-80
2021/03/09 10:27:21;;;;;;;9.90;5.00;;;8.70;36.60;;;;;;1740650;82;21208;-82
2021/03/09 10:29:57;;;;;;;7.47;4.80;;;8.90;36.20;;;;;;1740565;82;21288;-80
2021/03/09 10:32:25;;;;;;;;;;;8.90;36.00;;;;;;1742948;82;21281;-76
2021/03/09 10:34:56;;;;;;;22.55;5.17;;;9.00;36.30;;;;;;1739674;82;20150;-76
2021/03/09 10:37:36;;;;;;;9.75;4.85;;;9.00;37.10;;;;;;1734145;82;21130;-75
2021/03/09 10:40:09;;;;;;;10.32;5.40;;;8.90;36.80;;;;;;1723897;82;21115;-74
2021/03/09 10:42:44;;;;;;;10.60;4.83;;;8.80;35.60;;;;;;1723613;82;21141;-73
2021/03/09 10:45:25;;;;;;;11.30;5.90;;;8.70;36.40;;;;;;1723411;82;21106;-74
2021/03/09 10:47:59;;;;;;;10.65;5.65;;;8.70;37.10;;;;;;1723411;82;21162;-75
2021/03/09 10:50:42;;;;;;;9.15;5.37;;;8.80;36.50;;;;;;1723884;82;21122;-75
2021/03/09 10:53:11;;;;;;;13.75;5.75;;;8.80;35.90;;;;;;1726523;82;21166;-74
2021/03/09 10:55:39;;;;;;;11.22;5.75;;;8.90;35.70;;;;;;1724464;82;21161;-74
2021/03/09 10:58:07;;;;;;;12.28;5.83;;;9.00;36.40;;;;;;1724049;82;21122;-76
2021/03/09 11:00:34;;;;;;;10.35;5.45;;;8.80;36.00;;;;;;1724150;82;21142;-74
2021/03/09 11:03:03;;;;;;;12.55;5.67;;;8.60;37.10;;;;;;1730921;82;21139;-72
2021/03/09 11:05:31;;;;;;;10.32;5.58;;;8.60;36.50;;;;;;1721368;82;21149;-74
2021/03/09 11:07:58;;;;;;;12.53;5.10;;;8.60;37.50;;;;;;1719082;82;21142;-74
2021/03/09 11:10:26;;;;;;;13.00;6.10;;;8.70;37.00;;;;;;1723389;82;21173;-72
2021/03/09 11:12:54;;;;;;;19.73;7.75;;;8.80;36.80;;;;;;1725233;82;21135;-72
2021/03/09 11:15:21;;;;;;;14.50;7.15;;;8.70;36.50;;;;;;1725227;82;21177;-74
2021/03/09 11:17:49;;;;;;;11.35;6.53;;;8.80;36.90;;;;;;1727135;82;21224;-72
2021/03/09 11:20:18;;;;;;;10.70;5.90;;;8.90;37.50;;;;;;1727544;82;21564;-73
2021/03/09 11:22:45;;;;;;;11.40;5.95;;;8.90;37.30;;;;;;1724524;82;21186;-72
2021/03/09 11:25:15;;;;;;;11.70;6.60;;;8.90;37.30;;;;;;1723013;82;21592;-73
2021/03/09 11:27:43;;;;;;;11.28;6.50;;;8.90;36.90;;;;;;1720989;82;21142;-75
2021/03/09 11:30:13;;;;;;;11.18;6.42;;;8.80;36.80;;;;;;1714763;82;21137;-73
2021/03/09 11:32:41;;;;;;;11.38;6.62;;;9.00;37.10;;;;;;1723475;82;21299;-75
2021/03/09 11:35:11;;;;;;;13.95;7.40;;;9.00;37.00;;;;;;1731319;81;21180;-73
2021/03/09 11:37:38;;;;;;;14.95;7.55;;;9.00;37.40;;;;;;1734668;82;21099;-75
2021/03/09 11:40:08;;;;;;;15.10;7.15;;;8.70;37.40;;;;;;1732251;82;21408;-78
2021/03/09 11:42:36;;;;;;;12.30;7.00;;;8.40;37.20;;;;;;1732014;82;21134;-80
2021/03/09 11:45:06;;;;;;;14.05;8.05;;;8.20;38.00;;;;;;1731999;82;21146;-77
2021/03/09 11:47:36;;;;;;;12.65;7.22;;;8.10;38.80;;;;;;1731872;82;21129;-76
2021/03/09 11:50:06;;;;;;;13.20;7.12;;;8.00;39.50;;;;;;1731924;82;21146;-74
2021/03/09 11:52:35;;;;;;;13.72;7.45;;;8.00;39.40;;;;;;1732145;82;21122;-76
2021/03/09 11:55:04;;;;;;;13.70;6.80;;;8.00;39.30;;;;;;1731535;82;21121;-75
2021/03/09 11:57:32;;;;;;;13.48;6.72;;;8.10;39.10;;;;;;1732773;82;21125;-74
2021/03/09 11:59:59;;;;;;;13.08;6.83;;;8.20;39.30;;;;;;1734485;82;21145;-72
2021/03/09 12:02:27;;;;;;;11.75;6.20;;;8.30;38.80;;;;;;1732467;82;21126;-74
2021/03/09 12:04:55;;;;;;;12.95;6.35;;;8.40;39.50;;;;;;1732310;82;21178;-75
2021/03/09 12:07:23;;;;;;;10.53;5.87;;;8.60;39.10;;;;;;1731442;82;21615;-76
2021/03/09 12:09:51;;;;;;;12.23;6.37;;;8.80;39.10;;;;;;1732221;82;21165;-77
2021/03/09 12:12:19;;;;;;;15.60;7.90;;;8.90;38.50;;;;;;1731678;82;21576;-77
2021/03/09 12:14:46;;;;;;;14.13;7.22;;;9.00;38.20;;;;;;1733276;82;21095;-76
2021/03/09 12:17:14;;;;;;;12.15;6.72;;;8.90;37.30;;;;;;1734379;82;21137;-75
2021/03/09 12:19:42;;;;;;;16.73;7.50;;;8.90;37.30;;;;;;1731904;82;21141;-74
2021/03/09 12:22:10;;;;;;;13.18;7.87;;;9.00;38.30;;;;;;1732476;82;21145;-75
2021/03/09 12:24:38;;;;;;;14.73;8.00;;;8.90;37.00;;;;;;1734602;82;21102;-74
2021/03/09 12:27:06;;;;;;;21.87;7.70;;;8.90;37.50;;;;;;1732651;82;21182;-76
2021/03/09 12:29:34;;;;;;;13.15;7.22;;;8.70;37.90;;;;;;1731869;82;21106;-75
2021/03/09 12:32:02;;;;;;;14.15;7.78;;;8.60;38.80;;;;;;1732171;82;21572;-76
2021/03/09 12:34:30;;;;;;;16.35;7.92;;;8.70;38.50;;;;;;1732944;82;21118;-76
2021/03/09 12:36:57;;;;;;;12.82;6.75;;;8.70;38.70;;;;;;1739452;82;21730;-76
2021/03/09 12:39:25;;;;;;;15.63;7.40;;;8.80;38.20;;;;;;1738506;82;21949;-77
2021/03/09 12:41:53;;;;;;;16.05;7.70;;;9.00;38.40;;;;;;1737890;81;21149;-75
2021/03/09 12:44:22;;;;;;;15.10;8.28;;;9.00;38.70;;;;;;1728085;82;21109;-73
2021/03/09 12:46:50;;;;;;;14.18;7.37;;;8.90;38.10;;;;;;1740123;82;21137;-76
2021/03/09 12:49:18;;;;;;;14.70;7.95;;;8.90;38.70;;;;;;1737712;82;21137;-72
2021/03/09 12:51:46;;;;;;;16.12;7.78;;;9.10;39.00;;;;;;1738179;81;21608;-73
2021/03/09 12:54:14;;;;;;;15.13;8.00;;;9.10;39.20;;;;;;1740307;82;21090;-70
2021/03/09 12:56:41;;;;;;;14.40;7.72;;;9.20;38.40;;;;;;1738401;82;21129;-71
2021/03/09 12:59:09;;;;;;;14.93;8.48;;;9.30;38.60;;;;;;1737720;82;21572;-75
2021/03/09 13:01:37;;;;;;;15.05;8.13;;;9.40;38.30;;;;;;1737673;82;21129;-74
2021/03/09 13:04:07;;;;;;;16.70;8.10;;;9.30;38.10;;;;;;1738470;81;21156;-76
2021/03/09 13:06:34;;;;;;;13.35;7.78;;;9.30;38.60;;;;;;1740221;82;21177;-74
2021/03/09 13:09:06;;;;;;;17.67;9.28;;;9.40;39.00;;;;;;1738803;82;21141;-75
2021/03/09 13:11:34;;;;;;;20.40;10.50;;;9.40;38.90;;;;;;1737281;82;21144;-72